Accueil
METAR-TAF:

METAR-TAF

Aéroports :

Lechfeld, Allemagne

Base aérienne de Lechfeld

latitude: 48-11N, longitude: 010-52E, altitude: 555 m

Observation

Le bulletin a été fait il y a 45 minutes, à 21:20 UTC
Vent 5 kt de sud
Température 9°C
Humidité 71%
Pression 1014 hPa
Visibilité 10 km ou plus
Quelques nuages à une hauteur de 5000 ft
Nuages fragmentés à une hauteur de 10000 ft

METAR: ETSL 242120Z 18005KT 9999 FEW050 BKN100 09/04 Q1014 BLU

Heure: 23:05 (22:05 UTC)

Prévision

Le bulletin a été fait il y a 11 heures et 40 minutes, à 10:25 UTC
Prévision valable du 24 à 10 UTC au 24 à 18 UTC
Vent 8 kt de sud/sud-ouest
Visibilité: 1030 m
Nuages épars à une hauteur de 10000 ft
Nuages fragmentés à une hauteur de 24000 ft

TAF: ETSL 241025Z 2410/2418 20008KT 9999 NSW SCT100 BKN240 CANCEL 1030 BY ETGL

Observations et prévisions météorologiques de plus de 4000 aéroports (messages METAR et TAF).

Les stations disponibles sont représentées par des disques jaunes et rouges sur la carte.

Passer la souris dessus pour voir le nom de la station.

Cliquer dessus pour voir les observations et prévisions météorologiques.

Pour changer de carte: cliquez sur les boutons verts avec une croix noire pour zoomer, sur le bouton vert avec un tiret pour effectuer un zoom arrière, ou sur les flèches vertes pour les cartes adjacentes.


METAR-TAF: